EW1473 Weather Reports


Display with metric or nautical units.
time (UTC)temp
F
wind
direction
speed
MPH
gust
MPH
rain 1hr
in
rain 24hr
in
rain mn
in
humidity
%
barometer
mb
20190624093038 79 267 9.0 0.0 0.00 0.00 0.00 81 1012.4
20190624091604 0 0.0 0.0 0.00 0.00 0.00 1010.4
20190624090140 80 207 5.0 0.0 0.00 0.00 0.00 86 1009.9
20190624084716 80 218 8.0 0.0 0.00 0.00 0.00 86 1010.0
20190624083138 80 202 9.0 0.0 0.00 0.00 0.00 86 1010.2
20190624081552 80 206 8.0 0.0 0.00 0.00 0.00 87 1010.5
20190624080040 79 199 7.0 0.0 0.00 0.00 0.00 87 1010.5
20190624074602 79 177 5.0 0.0 0.00 0.00 0.00 88 1010.3
20190624073121 79 182 5.0 0.0 0.00 0.00 0.00 88 1010.3
20190624071619 79 194 6.0 0.0 0.00 0.00 0.00 88 1010.5
20190624070107 79 178 7.0 0.0 0.00 0.00 0.00 89 1010.3
20190624064549 79 169 6.0 0.0 0.00 0.00 0.00 89 1010.4
20190624063115 79 179 6.0 0.0 0.00 0.00 0.00 89 1010.7
20190624061631 79 190 6.0 0.0 0.00 0.00 0.00 89 1011.1
20190624060107 79 180 5.0 0.0 0.00 0.00 0.00 88 1011.2
20190624054550 80 171 4.0 0.0 0.00 0.00 0.00 88 1011.5
20190624053143 80 173 3.0 0.0 0.00 0.00 0.00 88 1011.8
20190624051604 80 167 6.0 0.0 0.00 0.00 0.00 88 1011.8
20190624050159 80 179 6.0 0.0 0.00 0.00 0.00 88 1011.8
20190624044611 80 175 5.0 0.0 0.00 0.00 0.00 87 1011.9
20190624043108 80 164 6.0 0.0 0.00 0.00 0.00 87 1011.8
20190624041600 80 178 7.0 0.0 0.00 0.00 0.00 87 1011.8
20190624040128 80 152 5.0 0.0 0.00 0.00 0.00 87 1011.8
20190624034603 80 164 5.0 0.0 0.00 0.00 0.00 87 1012.1
20190624033125 80 163 4.0 0.0 0.00 0.00 0.00 87 1012.1
20190624031647 80 166 3.0 0.0 0.00 0.00 0.00 87 1012.4
20190624030113 81 171 2.0 0.0 0.00 0.00 0.00 87 1012.3
20190624024604 81 170 2.0 0.0 0.00 0.00 0.00 87 1012.2
20190624023138 81 167 4.0 0.0 0.00 0.00 0.00 86 1011.9
20190624021638 81 161 5.0 0.0 0.00 0.00 0.00 86 1011.9
20190624020218 82 169 3.0 0.0 0.00 0.00 0.00 85 1011.7
20190624014622 81 152 4.0 0.0 0.00 0.00 0.00 86 1011.5
20190624013115 81 149 4.0 0.0 0.00 0.00 0.00 86 1011.5
20190624011610 81 170 4.0 0.0 0.00 0.00 0.00 86 1011.5
20190624010142 82 171 2.0 0.0 0.00 0.00 0.00 84 1011.2
20190624004642 82 171 2.0 0.0 0.00 0.00 0.00 83 1011.4
20190624003121 83 166 3.0 0.0 0.00 0.00 0.00 81 1011.5
20190624001607 84 167 3.0 0.0 0.00 0.00 0.00 80 1011.8
20190624000129 83 165 4.0 0.0 0.00 0.00 0.00 79 1011.6
20190623234610 83 171 1.0 0.0 0.00 0.00 0.00 78 1011.7
20190623233048 83 171 3.0 0.0 0.00 0.00 0.00 76 1011.7
20190623231600 83 175 5.0 0.0 0.00 0.00 0.00 75 1011.8
20190623230151 82 134 0.0 0.0 0.00 0.00 0.00 77 1011.8
20190623224611 82 134 2.0 0.0 0.00 0.00 0.00 74 1011.5
20190623223158 82 128 5.0 0.0 0.00 0.00 0.00 72 1011.8
20190623221534 84 121 9.0 0.0 0.00 0.00 0.00 67 1012.2
20190623220126 89 163 3.0 0.0 0.00 0.00 0.00 72 1012.7
20190623214611 91 182 5.0 0.0 0.00 0.00 0.00 66 1012.5
20190623213142 91 182 4.0 0.0 0.00 0.00 0.00 65 1012.5
20190623211624 92 197 1.0 0.0 0.00 0.00 0.00 66 1012.7
20190623210103 91 197 3.0 0.0 0.00 0.00 0.00 66 1012.8
20190623204631 91 199 3.0 0.0 0.00 0.00 0.00 67 1013.3
20190623203123 91 192 3.0 0.0 0.00 0.00 0.00 69 1013.6
20190623201534 90 188 5.0 0.0 0.00 0.00 0.00 68 1013.9
20190623200048 91 188 5.0 0.0 0.00 0.00 0.00 67 1014.1
20190623194554 90 206 6.0 0.0 0.00 0.00 0.00 67 1014.3
20190623193118 90 187 6.0 0.0 0.00 0.00 0.00 65 1014.3
20190623191542 90 170 6.0 0.0 0.00 0.00 0.00 64 1014.8
20190623190114 90 219 7.0 0.0 0.00 0.00 0.00 67 1014.9
20190623184614 90 179 7.0 0.0 0.00 0.00 0.00 68 1014.9
20190623183118 89 182 6.0 0.0 0.00 0.00 0.00 70 1015.1
20190623181630 88 201 6.0 0.0 0.00 0.00 0.00 72 1015.2
20190623180114 89 196 7.0 0.0 0.00 0.00 0.00 69 1015.2
20190623174615 89 217 7.0 0.0 0.00 0.00 0.00 68 1015.2
20190623173139 88 207 8.0 0.0 0.00 0.00 0.00 70 1015.2
20190623171610 88 188 8.0 0.0 0.00 0.00 0.00 70 1015.3
20190623170203 87 212 9.0 0.0 0.00 0.00 0.00 72 1015.4
20190623164607 88 181 6.0 0.0 0.00 0.00 0.00 74 1015.6
20190623163121 87 185 7.0 0.0 0.00 0.00 0.00 74 1015.6
20190623161610 86 185 5.0 0.0 0.00 0.00 0.00 77 1015.6
20190623160119 86 203 7.0 0.0 0.00 0.00 0.00 78 1015.5
20190623154557 86 169 8.0 0.0 0.00 0.00 0.00 77 1015.5
20190623153129 85 154 8.0 0.0 0.00 0.00 0.00 79 1015.8
20190623151557 84 226 8.0 0.0 0.00 0.00 0.00 80 1016.0
20190623150027 83 242 5.0 0.0 0.00 0.00 0.00 83 1016.2
20190623144610 82 207 6.0 0.0 0.00 0.00 0.00 83 1016.4
20190623143118 83 189 4.0 0.0 0.00 0.00 0.00 84 1016.5
20190623141605 82 169 5.0 0.0 0.00 0.00 0.00 86 1016.5
20190623140118 81 196 4.0 0.0 0.00 0.00 0.00 86 1016.5
20190623134615 81 169 6.0 0.0 0.00 0.00 0.00 86 1016.5
20190623133132 81 186 3.0 0.0 0.00 0.00 0.00 87 1016.4
20190623131636 81 209 6.0 0.0 0.00 0.00 0.00 87 1016.2
20190623130056 80 182 6.0 0.0 0.00 0.00 0.00 88 1016.0
20190623124604 80 187 6.0 0.0 0.00 0.00 0.00 88 1016.0
20190623123159 79 173 4.0 0.0 0.00 0.00 0.00 89 1016.0
20190623121552 78 185 4.0 0.0 0.00 0.00 0.00 89 1016.0
20190623120100 78 178 2.0 0.0 0.00 0.00 0.00 89 1016.0
20190623114630 78 178 2.0 0.0 0.00 0.00 0.00 89 1016.0
20190623113047 78 178 1.0 0.0 0.00 0.00 0.00 89 1015.5
20190623111628 78 178 4.0 0.0 0.00 0.00 0.00 89 1015.4
20190623110236 78 174 3.0 0.0 0.00 0.00 0.00 89 1015.3
20190623104601 78 169 3.0 0.0 0.00 0.00 0.00 89 1015.3
20190623103101 78 167 3.0 0.0 0.00 0.00 0.00 89 1015.3
20190623101550 78 168 3.0 0.0 0.00 0.00 0.00 89 1015.2
20190623100102 78 180 1.0 0.0 0.00 0.00 0.00 89 1015.2
20190623094550 78 180 2.0 0.0 0.00 0.00 0.00 89 1015.2